Time;durP1;ratioP1;P1;durP2;ratioP2;P2;SDS_P1;SDS_P2;PMS_P1;PMS_P2;Temp;Humidity;BMP_temperature;BMP_pressure;BME280_temperature;BME280_humidity;BME280_pressure;Samples;Min_cycle;Max_cycle;Signal;HPM_P1;HPM_P2
2022/11/23 00:02:22;;;;;;;5.33;4.87;;;;;;;3.58;100.00;95412.09;4989572;28;20203;-60
2022/11/23 00:04:47;;;;;;;6.87;4.37;;;;;;;3.59;100.00;95408.50;4992402;28;20246;-59
2022/11/23 00:07:13;;;;;;;5.53;4.73;;;;;;;3.55;100.00;95407.38;4958704;28;20266;-60
2022/11/23 00:09:38;;;;;;;7.60;4.73;;;;;;;3.55;100.00;95412.53;4979282;28;20203;-60
2022/11/23 00:12:04;;;;;;;9.97;4.73;;;;;;;3.55;100.00;95412.53;4960874;28;20663;-60
2022/11/23 00:14:29;;;;;;;6.37;4.47;;;;;;;3.52;100.00;95418.13;4973816;28;20697;-60
2022/11/23 00:16:54;;;;;;;6.40;4.77;;;;;;;3.52;100.00;95414.75;4979964;28;20189;-60
2022/11/23 00:19:20;;;;;;;8.33;5.03;;;;;;;3.48;100.00;95416.19;4974761;28;20185;-60
2022/11/23 00:21:45;;;;;;;7.43;5.13;;;;;;;3.49;100.00;95415.19;4982840;28;20215;-60
2022/11/23 00:24:12;;;;;;;6.40;5.20;;;;;;;3.44;100.00;95418.44;4982758;28;20219;-60
2022/11/23 00:26:37;;;;;;;6.23;5.17;;;;;;;3.47;100.00;95407.63;4985424;28;20184;-60
2022/11/23 00:29:03;;;;;;;5.73;5.13;;;;;;;3.43;100.00;95416.06;4992480;28;20723;-60
2022/11/23 00:31:28;;;;;;;6.27;4.47;;;;;;;3.49;100.00;95416.00;4989707;28;20219;-60
2022/11/23 00:33:55;;;;;;;6.93;5.53;;;;;;;3.48;100.00;95414.41;4976545;28;20260;-60
2022/11/23 00:36:22;;;;;;;7.27;4.70;;;;;;;3.45;100.00;95411.47;4973414;28;20275;-60
2022/11/23 00:38:48;;;;;;;9.70;5.40;;;;;;;3.45;100.00;95411.47;4974498;28;20192;-60
2022/11/23 00:41:20;;;;;;;10.37;5.00;;;;;;;3.39;100.00;95420.88;4975714;28;20223;-60
2022/11/23 00:43:45;;;;;;;7.97;5.23;;;;;;;3.39;100.00;95420.88;4959480;28;20189;-60
2022/11/23 00:46:14;;;;;;;6.03;4.60;;;;;;;3.42;100.00;95419.66;4977772;28;20227;-60
2022/11/23 00:48:40;;;;;;;9.53;5.20;;;;;;;3.40;100.00;95419.84;4995502;28;20219;-60
2022/11/23 00:51:07;;;;;;;8.23;5.47;;;;;;;3.45;100.00;95414.06;4995197;28;21073;-60
2022/11/23 00:53:33;;;;;;;9.67;5.27;;;;;;;3.49;100.00;95412.59;4995715;28;20188;-60
2022/11/23 00:55:58;;;;;;;7.93;5.00;;;;;;;3.57;100.00;95404.53;4981741;28;20650;-60
2022/11/23 00:58:25;;;;;;;5.20;4.60;;;;;;;3.59;100.00;95405.13;4990637;28;20235;-61
2022/11/23 01:00:58;;;;;;;6.07;4.37;;;;;;;3.66;100.00;95411.03;4995602;28;20185;-60
2022/11/23 01:03:23;;;;;;;6.17;4.87;;;;;;;3.66;100.00;95396.28;4977513;28;20668;-60
2022/11/23 01:05:49;;;;;;;5.30;4.80;;;;;;;3.64;100.00;95402.66;4978566;28;20186;-60
2022/11/23 01:08:14;;;;;;;5.27;4.80;;;;;;;3.68;100.00;95398.63;4981908;28;20192;-60
2022/11/23 01:10:39;;;;;;;5.47;4.90;;;;;;;3.69;100.00;95403.59;4987699;28;20216;-60
2022/11/23 01:13:05;;;;;;;5.50;5.00;;;;;;;3.71;100.00;95409.38;4993503;28;20188;-60
2022/11/23 01:15:30;;;;;;;4.80;4.40;;;;;;;3.74;100.00;95402.94;4984613;28;20185;-59
2022/11/23 01:17:55;;;;;;;5.97;4.80;;;;;;;3.70;100.00;95410.38;4990835;28;20667;-59
2022/11/23 01:20:20;;;;;;;6.63;5.00;;;;;;;3.77;100.00;95415.47;4994838;28;20646;-59
2022/11/23 01:22:46;;;;;;;7.37;4.73;;;;;;;3.84;100.00;95411.00;4987725;28;20188;-59
2022/11/23 01:25:11;;;;;;;5.70;5.13;;;;;;;3.82;100.00;95409.63;4983960;28;20621;-60
2022/11/23 01:27:36;;;;;;;6.63;4.73;;;;;;;3.83;100.00;95412.03;4995004;28;20194;-59
2022/11/23 01:30:02;;;;;;;4.57;4.10;;;;;;;3.82;100.00;95412.22;4994789;28;20247;-59
2022/11/23 01:32:27;;;;;;;6.90;4.93;;;;;;;3.81;100.00;95411.44;4984285;28;20532;-60
2022/11/23 01:34:52;;;;;;;4.90;4.40;;;;;;;3.81;100.00;95408.84;4980465;28;20192;-59
2022/11/23 01:37:18;;;;;;;5.10;4.70;;;;;;;3.88;100.00;95422.53;4975522;28;20184;-60
2022/11/23 01:39:43;;;;;;;6.30;4.50;;;;;;;3.84;100.00;95416.19;4976218;28;20540;-60
2022/11/23 01:42:08;;;;;;;6.40;4.60;;;;;;;3.85;100.00;95411.78;4982516;28;20262;-60
2022/11/23 01:44:38;;;;;;;5.50;4.53;;;;;;;3.88;100.00;95413.94;4974126;28;20224;-59
2022/11/23 01:47:06;;;;;;;5.40;4.00;;;;;;;3.91;100.00;95416.88;4982804;28;20180;-60
2022/11/23 01:49:48;;;;;;;4.17;3.80;;;;;;;3.96;100.00;95413.63;4994993;28;20191;-60
2022/11/23 01:52:21;;;;;;;10.23;4.50;;;;;;;3.94;100.00;95418.25;4993191;28;20184;-60
2022/11/23 01:54:49;;;;;;;5.70;3.97;;;;;;;3.92;100.00;95425.44;4990326;28;20720;-60
2022/11/23 01:57:26;;;;;;;5.27;4.40;;;;;;;3.91;100.00;95418.69;4983417;28;20293;-60
2022/11/23 01:59:53;;;;;;;10.17;4.10;;;;;;;3.86;100.00;95434.09;4977345;28;20287;-59
2022/11/23 02:02:19;;;;;;;4.50;4.10;;;;;;;3.80;100.00;95427.19;4984138;28;20694;-60
2022/11/23 02:04:47;;;;;;;5.43;4.43;;;;;;;3.72;100.00;95430.88;4978838;28;20263;-60
2022/11/23 02:07:15;;;;;;;7.33;4.20;;;;;;;3.68;100.00;95425.31;4975027;28;20205;-60
2022/11/23 02:09:41;;;;;;;8.03;4.87;;;;;;;3.69;100.00;95428.72;4974867;28;20189;-60
2022/11/23 02:12:11;;;;;;;7.03;4.43;;;;;;;3.66;100.00;95429.94;4982023;28;20192;-60
2022/11/23 02:14:37;;;;;;;6.00;5.43;;;;;;;3.57;100.00;95440.81;4991781;28;20206;-59
2022/11/23 02:17:03;;;;;;;9.87;5.20;;;;;;;3.57;100.00;95440.81;4981953;28;20192;-60
2022/11/23 02:19:50;;;;;;;8.40;5.13;;;;;;;3.49;100.00;95436.72;4994210;28;20633;-60
2022/11/23 02:22:28;;;;;;;8.17;5.60;;;;;;;3.42;100.00;95440.38;4993664;28;20256;-59
2022/11/23 02:24:54;;;;;;;6.33;4.93;;;;;;;3.32;100.00;95433.91;4983323;28;20186;-60
2022/11/23 02:27:21;;;;;;;9.03;4.93;;;;;;;3.38;100.00;95441.81;4991781;28;20212;-60
2022/11/23 02:29:47;;;;;;;10.97;4.80;;;;;;;3.34;100.00;95437.03;4993831;28;20224;-59
2022/11/23 02:32:21;;;;;;;8.47;5.47;;;;;;;3.31;100.00;95439.28;4985439;28;20196;-59
2022/11/23 02:34:47;;;;;;;6.63;4.80;;;;;;;3.30;100.00;95432.50;4978163;28;20200;-60
2022/11/23 02:37:12;;;;;;;9.30;5.57;;;;;;;3.30;100.00;95433.31;4975499;28;20232;-60
2022/11/23 02:39:45;;;;;;;7.53;4.50;;;;;;;3.28;100.00;95437.13;4974910;28;20219;-60
2022/11/23 02:42:10;;;;;;;7.70;5.40;;;;;;;3.17;100.00;95443.00;4978270;28;20552;-60
2022/11/23 02:44:58;;;;;;;7.13;5.13;;;;;;;3.15;100.00;95440.63;4979659;28;20189;-60
2022/11/23 02:47:24;;;;;;;7.40;5.30;;;;;;;3.19;100.00;95440.97;4986970;28;20528;-60
2022/11/23 02:49:49;;;;;;;5.33;4.93;;;;;;;3.18;100.00;95447.16;4993781;28;20192;-60
2022/11/23 02:52:16;;;;;;;7.87;4.90;;;;;;;3.16;100.00;95441.44;4992898;28;20188;-60
2022/11/23 02:54:41;;;;;;;4.77;4.37;;;;;;;3.07;100.00;95447.84;4990158;28;20185;-60
2022/11/23 02:57:07;;;;;;;5.63;5.03;;;;;;;3.10;100.00;95445.66;4984185;28;20188;-60
2022/11/23 02:59:33;;;;;;;5.73;4.73;;;;;;;3.08;100.00;95446.84;4993755;28;20223;-60
2022/11/23 03:01:59;;;;;;;5.50;5.00;;;;;;;3.24;100.00;95448.91;4992078;28;20188;-60
2022/11/23 03:04:25;;;;;;;7.17;4.60;;;;;;;3.13;100.00;95442.63;4992030;28;20191;-60
2022/11/23 03:06:50;;;;;;;12.40;5.00;;;;;;;3.11;100.00;95441.28;4973344;28;20259;-60
2022/11/23 03:09:15;;;;;;;5.73;4.67;;;;;;;3.09;100.00;95446.66;4956940;28;20187;-60
2022/11/23 03:11:41;;;;;;;6.27;4.40;;;;;;;3.17;100.00;95443.81;4979193;28;20222;-60
2022/11/23 03:14:06;;;;;;;5.10;4.57;;;;;;;3.16;100.00;95446.59;4993209;28;20704;-60
2022/11/23 03:16:32;;;;;;;7.50;4.83;;;;;;;3.02;100.00;95443.31;4978409;28;20521;-60
2022/11/23 03:18:58;;;;;;;7.37;5.37;;;;;;;3.05;100.00;95436.94;4993497;28;20212;-60
2022/11/23 03:21:23;;;;;;;7.70;5.00;;;;;;;2.98;100.00;95447.34;4993212;28;20215;-60
2022/11/23 03:23:49;;;;;;;7.70;4.57;;;;;;;2.93;100.00;95445.41;4993336;28;20192;-60
2022/11/23 03:26:14;;;;;;;5.67;4.70;;;;;;;2.88;100.00;95439.28;4978230;28;20258;-60
2022/11/23 03:28:39;;;;;;;5.93;4.83;;;;;;;2.98;100.00;95442.19;4992934;28;20183;-60
2022/11/23 03:31:05;;;;;;;7.50;4.60;;;;;;;2.96;100.00;95445.97;4992949;28;20207;-60
2022/11/23 03:33:30;;;;;;;5.87;4.87;;;;;;;3.04;100.00;95443.91;4957137;28;20203;-60
2022/11/23 03:35:55;;;;;;;5.70;5.13;;;;;;;3.10;100.00;95447.44;4979831;28;20192;-60
2022/11/23 03:38:21;;;;;;;5.93;4.67;;;;;;;3.11;100.00;95456.81;4982481;28;20184;-60
2022/11/23 03:40:47;;;;;;;8.30;4.40;;;;;;;3.13;100.00;95447.00;4993357;28;20187;-60
2022/11/23 03:43:13;;;;;;;6.50;4.80;;;;;;;3.21;100.00;95449.34;4976825;28;20203;-60
2022/11/23 03:45:39;;;;;;;8.03;4.43;;;;;;;3.33;100.00;95452.81;4982000;28;20218;-60
2022/11/23 03:48:05;;;;;;;5.33;4.47;;;;;;;3.31;100.00;95450.44;4977485;28;20208;-60
2022/11/23 03:50:30;;;;;;;5.53;4.13;;;;;;;3.35;100.00;95456.75;4974019;28;20213;-60
2022/11/23 03:52:56;;;;;;;7.60;4.97;;;;;;;3.38;100.00;95449.59;4973704;28;20668;-60
2022/11/23 03:55:22;;;;;;;5.83;4.50;;;;;;;3.43;100.00;95447.94;4982872;28;20701;-60
2022/11/23 03:57:48;;;;;;;6.70;4.83;;;;;;;3.49;100.00;95441.91;4985972;28;20194;-60
2022/11/23 04:00:14;;;;;;;4.60;4.20;;;;;;;3.53;100.00;95443.03;4984560;28;20196;-60
2022/11/23 04:02:41;;;;;;;4.73;4.13;;;;;;;3.53;100.00;95440.44;4980581;28;20189;-60
2022/11/23 04:05:07;;;;;;;5.20;4.17;;;;;;;3.56;100.00;95432.25;4987052;28;20654;-61
2022/11/23 04:07:32;;;;;;;5.00;4.60;;;;;;;3.57;100.00;95436.41;4982032;28;20637;-60
2022/11/23 04:09:57;;;;;;;6.47;4.23;;;;;;;3.60;100.00;95430.03;4992798;28;20191;-60
2022/11/23 04:12:24;;;;;;;4.90;4.23;;;;;;;3.67;100.00;95421.19;4981395;28;20647;-59
2022/11/23 04:14:49;;;;;;;5.67;4.20;;;;;;;3.69;100.00;95426.91;4974151;28;20181;-60
2022/11/23 04:17:15;;;;;;;5.00;4.60;;;;;;;3.70;100.00;95420.72;4985993;28;20520;-59
2022/11/23 04:19:40;;;;;;;6.30;4.77;;;;;;;3.67;100.00;95418.59;4996750;28;20270;-59
2022/11/23 04:22:05;;;;;;;5.20;4.80;;;;;;;3.79;100.00;95423.03;4995931;28;20192;-60
2022/11/23 04:24:30;;;;;;;5.77;5.20;;;;;;;3.69;100.00;95423.53;4978663;28;20212;-60
2022/11/23 04:26:56;;;;;;;5.47;4.23;;;;;;;3.74;100.00;95424.47;4989457;28;20246;-60
2022/11/23 04:29:21;;;;;;;7.57;5.23;;;;;;;3.71;100.00;95417.13;4976626;28;20260;-60
2022/11/23 04:31:46;;;;;;;5.30;4.80;;;;;;;3.72;100.00;95415.34;4964624;28;20202;-60
2022/11/23 04:34:12;;;;;;;6.10;5.00;;;;;;;3.72;100.00;95418.72;4996275;28;20184;-60
2022/11/23 04:36:37;;;;;;;5.53;5.03;;;;;;;3.71;100.00;95416.34;4987434;28;20218;-60
2022/11/23 04:39:03;;;;;;;5.87;5.47;;;;;;;3.74;100.00;95413.31;4996029;28;20191;-60
2022/11/23 04:41:29;;;;;;;4.90;4.60;;;;;;;3.65;100.00;95415.41;4993702;28;20283;-60
2022/11/23 04:43:54;;;;;;;7.43;6.70;;;;;;;3.49;100.00;95422.97;4976642;28;20308;-60
2022/11/23 04:46:20;;;;;;;6.13;5.60;;;;;;;3.56;100.00;95414.13;4978730;28;20195;-60
2022/11/23 04:48:45;;;;;;;7.97;4.67;;;;;;;3.53;100.00;95426.69;4996500;28;20283;-60
2022/11/23 04:51:11;;;;;;;4.63;4.10;;;;;;;3.43;100.00;95427.22;4995553;28;20204;-60
2022/11/23 04:53:36;;;;;;;6.60;5.03;;;;;;;3.38;100.00;95423.69;4984605;28;20704;-60
2022/11/23 04:56:02;;;;;;;7.73;4.47;;;;;;;3.30;100.00;95427.34;4961920;28;20180;-60
2022/11/23 04:58:28;;;;;;;5.57;4.57;;;;;;;3.41;100.00;95421.44;4995614;28;20247;-60
2022/11/23 05:00:53;;;;;;;6.00;4.20;;;;;;;3.21;100.00;95424.25;4995733;28;20184;-60
2022/11/23 05:03:18;;;;;;;5.60;4.03;;;;;;;3.42;100.00;95423.03;4978442;28;20203;-60
2022/11/23 05:05:44;;;;;;;4.23;3.80;;;;;;;3.38;100.00;95424.47;4976010;28;20185;-60
2022/11/23 05:08:09;;;;;;;4.87;4.03;;;;;;;3.32;100.00;95426.13;4976144;28;20604;-60
2022/11/23 05:10:36;;;;;;;5.93;4.40;;;;;;;3.31;100.00;95418.56;4976171;28;20220;-60
2022/11/23 05:13:02;;;;;;;5.33;4.20;;;;;;;3.35;100.00;95423.09;4993891;28;20649;-60
2022/11/23 05:15:27;;;;;;;6.07;4.53;;;;;;;3.32;100.00;95422.75;4993744;28;20214;-60
2022/11/23 05:17:53;;;;;;;6.07;4.00;;;;;;;3.32;100.00;95433.91;4990041;28;20625;-59
2022/11/23 05:20:18;;;;;;;7.33;4.87;;;;;;;3.39;100.00;95427.88;4995187;28;20188;-60
2022/11/23 05:22:43;;;;;;;5.50;4.70;;;;;;;3.47;100.00;95423.19;4994968;28;20199;-60
2022/11/23 05:25:09;;;;;;;3.57;3.37;;;;;;;3.58;100.00;95427.63;4995274;28;20209;-60
2022/11/23 05:27:35;;;;;;;6.43;4.00;;;;;;;3.60;100.00;95417.06;4976558;28;20243;-60
2022/11/23 05:30:01;;;;;;;4.77;4.17;;;;;;;3.64;100.00;95415.63;4989589;28;20232;-60
2022/11/23 05:32:26;;;;;;;6.00;3.93;;;;;;;3.55;100.00;95409.16;4984724;28;20185;-60
2022/11/23 05:34:52;;;;;;;5.27;4.33;;;;;;;3.60;100.00;95407.50;4958678;28;20196;-60
2022/11/23 05:37:17;;;;;;;5.20;4.70;;;;;;;3.64;100.00;95415.63;4973933;28;20192;-60
2022/11/23 05:39:42;;;;;;;7.53;4.53;;;;;;;3.68;100.00;95411.59;4993417;28;20219;-60
2022/11/23 05:42:08;;;;;;;5.20;4.50;;;;;;;3.62;100.00;95410.66;4988093;28;20193;-60
2022/11/23 05:44:33;;;;;;;7.70;4.50;;;;;;;3.59;100.00;95410.31;4974299;28;20192;-60
2022/11/23 05:46:59;;;;;;;7.23;4.43;;;;;;;3.71;100.00;95403.38;4982866;28;20284;-61
2022/11/23 05:49:24;;;;;;;3.83;3.53;;;;;;;3.68;100.00;95406.41;4975653;28;20196;-60
2022/11/23 05:51:50;;;;;;;10.43;4.70;;;;;;;3.68;100.00;95412.38;4975443;28;20196;-60
2022/11/23 05:54:15;;;;;;;4.70;4.07;;;;;;;3.76;100.00;95412.09;4975985;28;20574;-60
2022/11/23 05:56:40;;;;;;;6.80;5.03;;;;;;;3.71;100.00;95406.78;4983389;28;20256;-60
2022/11/23 05:59:06;;;;;;;7.57;4.67;;;;;;;3.78;100.00;95411.09;4975120;28;20220;-61
2022/11/23 06:01:32;;;;;;;6.33;5.13;;;;;;;3.68;100.00;95409.00;4980953;28;20173;-60
2022/11/23 06:03:57;;;;;;;6.77;5.03;;;;;;;3.77;100.00;95405.13;4975452;28;20188;-59
2022/11/23 06:06:23;;;;;;;6.97;5.00;;;;;;;3.81;100.00;95406.25;4974533;28;20193;-60
2022/11/23 06:08:48;;;;;;;5.23;4.70;;;;;;;3.81;100.00;95411.44;4975066;28;20192;-60
2022/11/23 06:11:13;;;;;;;5.13;4.47;;;;;;;3.81;100.00;95406.25;4982742;28;20229;-60
2022/11/23 06:13:39;;;;;;;4.57;4.17;;;;;;;3.82;100.00;95409.63;4993438;28;20183;-60
2022/11/23 06:16:04;;;;;;;8.77;4.40;;;;;;;3.86;100.00;95408.19;4986897;28;20184;-60
2022/11/23 06:18:30;;;;;;;5.17;4.77;;;;;;;3.94;100.00;95402.72;4990895;28;20192;-60
2022/11/23 06:20:59;;;;;;;8.03;6.80;;;;;;;3.94;100.00;95407.91;4990801;28;20645;-60
2022/11/23 06:23:24;;;;;;;8.17;6.97;;;;;;;3.81;100.00;95415.81;4975216;28;20645;-60
2022/11/23 06:25:49;;;;;;;6.97;6.37;;;;;;;3.80;100.00;95409.84;4958825;28;20188;-60
2022/11/23 06:28:15;;;;;;;6.90;6.27;;;;;;;3.85;100.00;95412.56;4974925;28;20201;-61
2022/11/23 06:30:40;;;;;;;7.50;6.80;;;;;;;3.87;100.00;95417.53;4975732;28;20255;-61
2022/11/23 06:33:06;;;;;;;8.33;7.60;;;;;;;3.80;100.00;95409.06;4978022;28;20200;-61
2022/11/23 06:35:31;;;;;;;7.70;7.07;;;;;;;3.70;100.00;95414.75;4969132;28;20676;-60
2022/11/23 06:37:56;;;;;;;8.93;8.23;;;;;;;3.67;100.00;95413.41;4974092;28;20204;-61
2022/11/23 06:40:22;;;;;;;6.97;6.20;;;;;;;3.72;100.00;95410.16;4974536;28;20304;-60
2022/11/23 06:42:47;;;;;;;7.53;5.93;;;;;;;3.75;100.00;95418.28;4977421;28;20188;-61
2022/11/23 06:45:13;;;;;;;6.17;5.67;;;;;;;3.77;100.00;95418.06;4977082;28;20188;-61
2022/11/23 06:47:38;;;;;;;9.07;4.80;;;;;;;3.74;100.00;95414.09;4982305;28;20545;-63
2022/11/23 06:50:04;;;;;;;8.80;4.93;;;;;;;3.60;100.00;95427.44;4990059;28;20192;-64
2022/11/23 06:52:30;;;;;;;6.00;4.30;;;;;;;3.69;100.00;95413.97;4974275;28;20180;-61
2022/11/23 06:54:55;;;;;;;7.30;4.73;;;;;;;3.68;100.00;95425.31;4974945;28;20192;-61
2022/11/23 06:57:20;;;;;;;6.33;4.70;;;;;;;3.73;100.00;95424.69;4993820;28;20184;-61
2022/11/23 06:59:46;;;;;;;6.20;4.83;;;;;;;3.70;100.00;95427.72;4993209;28;20192;-61
2022/11/23 07:02:12;;;;;;;8.90;4.60;;;;;;;3.70;100.00;95427.72;4984702;28;20238;-61
2022/11/23 07:04:37;;;;;;;4.93;4.37;;;;;;;3.70;100.00;95427.72;4973589;28;20192;-61
2022/11/23 07:07:02;;;;;;;6.57;4.90;;;;;;;3.70;100.00;95432.91;4977270;28;20549;-61
2022/11/23 07:09:28;;;;;;;12.13;5.60;;;;;;;3.72;100.00;95431.69;4976205;28;20192;-62
2022/11/23 07:11:53;;;;;;;8.57;4.67;;;;;;;3.78;100.00;95442.19;4993116;28;20290;-62
2022/11/23 07:14:18;;;;;;;5.80;4.63;;;;;;;3.76;100.00;95437.22;4993280;28;20274;-62
2022/11/23 07:16:44;;;;;;;5.77;5.10;;;;;;;3.90;100.00;95440.44;4983291;28;20188;-64
2022/11/23 07:19:09;;;;;;;8.60;5.00;;;;;;;3.91;100.00;95448.00;4993224;28;20270;-64
2022/11/23 07:21:35;;;;;;;5.23;4.70;;;;;;;4.08;100.00;95445.59;4956590;28;20193;-62
2022/11/23 07:24:00;;;;;;;7.87;4.40;;;;;;;4.23;100.00;95446.00;4973768;28;20208;-62
2022/11/23 07:26:25;;;;;;;9.67;4.37;;;;;;;4.23;100.00;95448.59;4985973;28;20199;-62
2022/11/23 07:28:51;;;;;;;7.17;4.13;;;;;;;4.03;100.00;95450.63;4989549;28;20243;-62
2022/11/23 07:31:16;;;;;;;11.33;4.70;;;;;;;4.03;100.00;95446.25;4974401;28;20602;-62
2022/11/23 07:33:45;;;;;;;10.27;9.07;;;;;;;4.07;100.00;95444.78;4973483;28;20188;-62
2022/11/23 07:36:12;;;;;;;10.23;9.37;;;;;;;3.99;100.00;95445.13;4978590;28;20498;-63
2022/11/23 07:38:37;;;;;;;8.17;6.70;;;;;;;4.15;100.00;95449.69;4984285;28;20195;-62
2022/11/23 07:41:02;;;;;;;9.03;6.60;;;;;;;4.14;100.00;95449.91;4991606;28;20607;-62
2022/11/23 07:43:28;;;;;;;6.30;5.67;;;;;;;4.02;100.00;95447.25;4976781;28;20491;-61
2022/11/23 07:45:55;;;;;;;6.47;5.83;;;;;;;4.10;100.00;95456.53;4976313;28;20184;-61
2022/11/23 07:48:21;;;;;;;8.60;5.80;;;;;;;4.13;100.00;95450.91;4992183;28;20176;-61
2022/11/23 07:50:46;;;;;;;8.87;6.53;;;;;;;4.21;100.00;95450.63;4995885;28;20192;-62
2022/11/23 07:53:11;;;;;;;6.73;6.03;;;;;;;4.06;100.00;95460.59;4988355;28;20189;-63
2022/11/23 07:55:37;;;;;;;7.87;5.67;;;;;;;4.21;100.00;95462.78;4990272;28;20536;-62
2022/11/23 07:58:04;;;;;;;12.23;6.93;;;;;;;4.31;100.00;95463.84;4957565;28;20199;-62
2022/11/23 08:00:29;;;;;;;7.20;6.57;;;;;;;4.44;100.00;95463.69;4994475;28;20667;-62
2022/11/23 08:02:56;;;;;;;7.37;6.23;;;;;;;4.35;100.00;95466.78;4979358;28;20189;-62
2022/11/23 08:05:22;;;;;;;10.03;9.30;;;;;;;4.33;100.00;95467.03;4976593;28;20271;-62
2022/11/23 08:07:48;;;;;;;10.27;8.83;;;;;;;4.30;100.00;95464.84;4976259;28;20273;-63
2022/11/23 08:10:13;;;;;;;11.27;10.27;;;;;;;4.42;100.00;95464.91;4977043;28;20319;-63
2022/11/23 08:12:39;;;;;;;9.87;8.87;;;;;;;4.66;100.00;95465.75;4975837;28;20177;-63
2022/11/23 08:15:05;;;;;;;11.17;10.27;;;;;;;4.51;100.00;95463.59;4977039;28;20337;-64
2022/11/23 08:17:32;;;;;;;86.23;81.57;;;;;;;4.57;100.00;95457.50;4977012;28;20536;-64
2022/11/23 08:19:57;;;;;;;85.67;80.37;;;;;;;4.60;100.00;95465.63;4977046;28;20193;-63
2022/11/23 08:22:23;;;;;;;88.20;83.50;;;;;;;4.53;100.00;95467.53;4976651;28;20173;-63
2022/11/23 08:24:48;;;;;;;13.03;11.03;;;;;;;4.59;100.00;95469.25;4976555;28;20181;-64
2022/11/23 08:27:13;;;;;;;9.60;8.67;;;;;;;4.71;100.00;95465.88;4975658;28;20185;-64
2022/11/23 08:29:39;;;;;;;10.53;8.90;;;;;;;4.77;100.00;95465.00;4975398;28;20243;-63
2022/11/23 08:32:04;;;;;;;9.83;9.07;;;;;;;4.93;100.00;95470.34;4979349;28;20694;-63
2022/11/23 08:34:29;;;;;;;9.80;8.87;;;;;;;4.93;100.00;95475.53;4994611;28;20191;-63
2022/11/23 08:36:55;;;;;;;9.93;7.73;;;;;;;4.89;100.00;95471.81;4966060;28;20666;-63
2022/11/23 08:39:21;;;;;;;7.03;6.47;;;;;;;5.20;100.00;95468.09;4959039;28;20195;-63
2022/11/23 08:41:46;;;;;;;9.77;6.00;;;;;;;5.08;100.00;95469.91;4963616;28;20263;-63
2022/11/23 08:44:12;;;;;;;6.93;6.33;;;;;;;5.14;100.00;95470.81;4980506;28;20188;-63
2022/11/23 08:46:38;;;;;;;7.60;6.53;;;;;;;5.09;100.00;95468.09;4976878;28;20212;-64
2022/11/23 08:49:04;;;;;;;7.60;6.93;;;;;;;5.22;100.00;95467.88;4995267;28;20226;-63
2022/11/23 08:51:30;;;;;;;8.90;8.10;;;;;;;5.34;100.00;95466.88;4980618;28;20693;-64
2022/11/23 08:53:56;;;;;;;6.87;6.23;;;;;;;5.39;100.00;95472.19;4992047;28;20231;-63
2022/11/23 08:56:21;;;;;;;7.10;5.40;;;;;;;5.34;100.00;95472.09;4977038;28;20220;-63
2022/11/23 08:58:47;;;;;;;7.07;5.27;;;;;;;5.42;100.00;95471.72;4978476;28;20200;-63
2022/11/23 09:01:15;;;;;;;7.60;5.43;;;;;;;5.49;100.00;95465.63;4993282;28;20188;-64
2022/11/23 09:03:41;;;;;;;8.20;4.73;;;;;;;5.46;100.00;95469.47;4982088;28;20184;-64
2022/11/23 09:06:07;;;;;;;6.50;5.87;;;;;;;5.55;100.00;95469.91;4986594;28;20224;-64
2022/11/23 09:08:33;;;;;;;10.00;7.53;;;;;;;5.59;100.00;95473.63;4981826;28;20617;-63
2022/11/23 09:11:07;;;;;;;18.20;16.73;;;;;;;5.59;100.00;95474.44;4976117;28;20284;-63
2022/11/23 09:13:36;;;;;;;9.60;8.80;;;;;;;5.60;100.00;95473.41;4977874;28;20177;-63
2022/11/23 09:16:03;;;;;;;8.63;6.27;;;;;;;5.75;100.00;95472.94;4987719;28;20191;-62
2022/11/23 09:18:29;;;;;;;5.67;5.20;;;;;;;5.76;100.00;95469.31;4995098;28;20260;-61
2022/11/23 09:20:55;;;;;;;6.47;5.90;;;;;;;5.80;100.00;95471.22;4992160;28;20188;-61
2022/11/23 09:23:21;;;;;;;5.90;5.40;;;;;;;5.81;100.00;95477.22;4995241;28;20188;-61
2022/11/23 09:25:48;;;;;;;9.77;5.13;;;;;;;5.82;100.00;95474.41;4992323;28;20187;-61
2022/11/23 09:28:19;;;;;;;7.40;4.97;;;;;;;6.02;100.00;95481.09;4975644;28;20200;-61
2022/11/23 09:30:46;;;;;;;8.87;5.07;;;;;;;5.95;100.00;95470.81;4987413;28;20532;-62
2022/11/23 09:33:12;;;;;;;10.63;5.40;;;;;;;5.88;100.00;95474.53;4975264;28;20677;-61
2022/11/23 09:35:38;;;;;;;8.60;5.00;;;;;;;6.04;100.00;95479.81;4974797;28;20188;-61
2022/11/23 09:38:03;;;;;;;6.03;5.30;;;;;;;6.15;100.00;95468.59;4974835;28;20288;-61
2022/11/23 09:40:36;;;;;;;6.00;5.10;;;;;;;6.13;100.00;95473.22;4985774;28;20195;-61
2022/11/23 09:43:24;;;;;;;6.50;4.80;;;;;;;5.91;100.00;95464.47;4971935;28;20184;-62
2022/11/23 09:45:53;;;;;;;4.60;4.10;;;;;;;6.03;99.88;95474.84;4961586;28;20243;-61
2022/11/23 09:48:48;;;;;;;4.73;3.97;;;;;;;6.16;98.26;95472.78;4958156;28;20181;-60
2022/11/23 09:51:19;;;;;;;9.07;7.93;;;;;;;6.09;96.75;95472.09;4993522;28;20196;-62
2022/11/23 09:53:51;;;;;;;5.37;4.97;;;;;;;6.13;95.97;95475.81;4994573;28;20199;-60
2022/11/23 09:56:24;;;;;;;5.47;4.67;;;;;;;6.18;96.10;95468.16;4985432;28;20193;-60
2022/11/23 09:58:54;;;;;;;7.67;7.10;;;;;;;6.18;95.34;95467.34;4975212;28;20665;-60
2022/11/23 10:01:20;;;;;;;9.73;9.03;;;;;;;6.07;96.83;95462.97;4973938;28;20289;-61
2022/11/23 10:03:46;;;;;;;9.23;8.53;;;;;;;6.09;95.44;95463.50;4977993;28;20677;-61
2022/11/23 10:06:24;;;;;;;10.60;9.87;;;;;;;6.18;94.65;95456.94;4986384;28;20495;-60
2022/11/23 10:09:23;;;;;;;10.07;8.93;;;;;;;6.29;94.13;95463.91;4975936;28;20550;-60
2022/11/23 10:12:06;;;;;;;7.83;7.33;;;;;;;6.30;93.54;95455.06;4974623;28;20208;-61
2022/11/23 10:14:34;;;;;;;7.07;6.47;;;;;;;6.29;94.48;95455.31;4973504;28;20537;-61
2022/11/23 10:17:21;;;;;;;7.37;6.77;;;;;;;6.30;92.40;95459.50;4973949;28;20184;-61
2022/11/23 10:20:04;;;;;;;16.03;14.90;;;;;;;6.35;91.51;95452.59;4985458;28;20172;-62
2022/11/23 10:22:40;;;;;;;5.43;4.97;;;;;;;6.49;91.17;95448.66;4974394;28;20271;-61
2022/11/23 10:25:27;;;;;;;6.63;6.00;;;;;;;6.49;88.89;95453.88;4974988;28;20619;-61
2022/11/23 10:28:11;;;;;;;6.17;5.47;;;;;;;6.68;88.24;95452.66;4982920;28;20192;-61
2022/11/23 10:30:37;;;;;;;9.20;8.50;;;;;;;6.64;89.82;95450.72;4982720;28;20234;-61
2022/11/23 10:33:27;;;;;;;7.00;4.63;;;;;;;6.67;90.29;95452.88;4979722;28;20188;-61
2022/11/23 10:35:52;;;;;;;7.13;6.33;;;;;;;6.76;90.49;95461.88;4987204;28;20263;-61
2022/11/23 10:38:20;;;;;;;7.53;5.03;;;;;;;6.82;89.53;95457.53;4983163;28;20272;-61
2022/11/23 10:41:08;;;;;;;6.20;5.60;;;;;;;6.74;88.96;95461.34;4987627;28;20239;-61
2022/11/23 10:43:36;;;;;;;7.60;5.37;;;;;;;6.79;88.85;95455.44;4976471;28;20204;-61
2022/11/23 10:46:33;;;;;;;5.17;4.70;;;;;;;6.74;89.65;95450.13;4993221;28;20207;-61
2022/11/23 10:49:26;;;;;;;7.17;4.93;;;;;;;6.85;88.39;95459.69;4929891;28;20278;-62
2022/11/23 10:51:57;;;;;;;6.23;5.60;;;;;;;6.79;88.80;95456.22;4959621;28;20208;-61
2022/11/23 10:54:33;;;;;;;6.40;4.60;;;;;;;6.86;88.63;95456.84;4983842;28;20467;-61
2022/11/23 10:57:00;;;;;;;9.13;4.80;;;;;;;6.81;89.77;95446.34;4991554;28;20257;-61
2022/11/23 10:59:37;;;;;;;8.93;8.23;;;;;;;6.85;89.11;95446.69;4975786;28;20227;-62
2022/11/23 11:02:17;;;;;;;7.23;6.73;;;;;;;6.97;87.97;95445.56;4970616;28;20196;-61
2022/11/23 11:04:44;;;;;;;5.77;5.27;;;;;;;6.91;88.67;95446.50;4973438;28;20226;-61
2022/11/23 11:07:29;;;;;;;5.60;5.10;;;;;;;7.06;87.67;95432.94;4974587;28;20184;-61
2022/11/23 11:09:58;;;;;;;5.53;4.93;;;;;;;7.07;87.85;95439.72;4976561;28;20513;-61
2022/11/23 11:12:26;;;;;;;5.77;5.37;;;;;;;7.17;86.84;95445.09;4992806;28;20298;-61
2022/11/23 11:15:22;;;;;;;10.47;9.77;;;;;;;7.23;86.19;95440.75;4986795;28;20666;-61
2022/11/23 11:17:57;;;;;;;17.13;16.03;;;;;;;7.19;85.60;95440.41;4974878;28;20235;-60
2022/11/23 11:20:22;;;;;;;12.27;11.30;;;;;;;7.38;84.84;95433.16;4986236;28;20571;-61
2022/11/23 11:22:48;;;;;;;25.93;24.30;;;;;;;7.40;83.06;95429.28;4973263;28;20195;-61
2022/11/23 11:25:35;;;;;;;33.37;31.47;;;;;;;7.36;83.52;95429.97;4986757;28;20243;-61
2022/11/23 11:28:18;;;;;;;41.83;39.23;;;;;;;7.28;84.53;95422.56;4984685;28;20232;-61
2022/11/23 11:30:53;;;;;;;44.90;42.37;;;;;;;7.30;83.63;95423.91;4975002;28;20264;-61
2022/11/23 11:33:27;;;;;;;58.53;55.20;;;;;;;7.26;84.07;95427.22;4977624;28;20195;-61
2022/11/23 11:35:54;;;;;;;144.63;136.77;;;;;;;7.48;83.79;95421.03;4966965;28;20211;-61
2022/11/23 11:38:26;;;;;;;26.70;24.97;;;;;;;7.49;81.93;95421.81;4974699;28;20188;-62